Time;durP1;ratioP1;P1;durP2;ratioP2;P2;SDS_P1;SDS_P2;PMS_P1;PMS_P2;Temp;Humidity;BMP_temperature;BMP_pressure;BME280_temperature;BME280_humidity;BME280_pressure;Samples;Min_cycle;Max_cycle;Signal;HPM_P1;HPM_P2
2023/12/18 00:01:03;;;;;;;4.22;0.95;;;;;;;11.74;100.00;101605.56;5007468;28;20050;-47
2023/12/18 00:03:31;;;;;;;1.65;0.57;;;;;;;11.74;100.00;101594.47;5008682;28;20046;-47
2023/12/18 00:05:58;;;;;;;2.03;0.70;;;;;;;11.74;100.00;101603.59;5007855;28;20046;-48
2023/12/18 00:08:26;;;;;;;3.70;1.65;;;;;;;11.76;100.00;101606.03;5008234;28;20046;-48
2023/12/18 00:10:53;;;;;;;3.90;1.33;;;;;;;11.77;100.00;101604.91;5009019;28;20046;-47
2023/12/18 00:13:21;;;;;;;2.08;0.60;;;;;;;11.79;100.00;101602.59;5008362;28;20049;-52
2023/12/18 00:15:48;;;;;;;3.33;0.60;;;;;;;11.80;100.00;101604.22;5008557;28;20046;-49
2023/12/18 00:18:15;;;;;;;3.13;1.02;;;;;;;11.80;100.00;101602.28;5008787;28;20042;-48
2023/12/18 00:20:43;;;;;;;1.23;0.68;;;;;;;11.82;100.00;101591.66;5008889;28;20054;-51
2023/12/18 00:23:10;;;;;;;3.25;0.95;;;;;;;11.84;100.00;101591.31;5007263;28;20059;-53
2023/12/18 00:25:38;;;;;;;4.82;0.88;;;;;;;11.84;100.00;101591.31;5009058;28;20499;-49
2023/12/18 00:28:06;;;;;;;1.65;0.50;;;;;;;11.84;100.00;101583.81;5008314;28;20054;-52
2023/12/18 00:30:33;;;;;;;4.10;0.80;;;;;;;11.84;100.00;101571.88;5007701;28;20061;-52
2023/12/18 00:33:01;;;;;;;3.33;0.73;;;;;;;11.86;100.00;101583.50;5008588;28;20046;-48
2023/12/18 00:35:29;;;;;;;4.20;0.70;;;;;;;11.86;100.00;101583.50;5007654;28;20630;-49
2023/12/18 00:37:56;;;;;;;3.13;0.80;;;;;;;11.86;100.00;101586.25;4989850;28;20050;-49
2023/12/18 00:40:25;;;;;;;2.28;1.05;;;;;;;11.85;100.00;101585.44;5004366;28;20377;-48
2023/12/18 00:42:53;;;;;;;3.70;1.08;;;;;;;11.85;100.00;101581.84;5007592;28;20049;-50
2023/12/18 00:45:20;;;;;;;4.57;1.13;;;;;;;11.82;100.00;101586.09;5008710;28;20049;-50
2023/12/18 00:47:47;;;;;;;3.60;0.60;;;;;;;11.82;100.00;101596.38;5008381;28;20042;-48
2023/12/18 00:50:15;;;;;;;1.42;0.60;;;;;;;11.81;100.00;101601.13;5007913;28;20042;-54
2023/12/18 00:52:42;;;;;;;3.20;0.60;;;;;;;11.82;100.00;101585.28;5007948;28;20057;-49
2023/12/18 00:55:10;;;;;;;1.27;0.70;;;;;;;11.83;100.00;101603.56;5006251;28;20373;-53
2023/12/18 00:57:37;;;;;;;2.67;0.80;;;;;;;11.83;100.00;101587.75;5007730;28;20046;-49
2023/12/18 01:00:05;;;;;;;0.63;0.30;;;;;;;11.85;100.00;101584.63;5007958;28;20404;-48
2023/12/18 01:02:32;;;;;;;2.20;0.73;;;;;;;11.86;100.00;101577.94;5023724;28;20467;-49
2023/12/18 01:05:00;;;;;;;0.93;0.50;;;;;;;11.87;100.00;101577.59;5026482;28;20049;-49
2023/12/18 01:07:32;;;;;;;2.13;0.93;;;;;;;11.89;100.00;101575.28;5026415;28;20042;-48
2023/12/18 01:09:59;;;;;;;3.10;0.73;;;;;;;11.92;100.00;101569.06;5027309;28;20670;-49
2023/12/18 01:12:26;;;;;;;1.30;0.50;;;;;;;11.93;100.00;101558.78;5027020;28;20053;-49
2023/12/18 01:14:54;;;;;;;3.15;0.68;;;;;;;11.95;100.00;101559.28;5027689;28;20057;-51
2023/12/18 01:17:21;;;;;;;5.00;0.30;;;;;;;11.97;100.00;101555.00;5026491;28;20515;-50
2023/12/18 01:20:03;;;;;;;2.65;0.52;;;;;;;12.00;100.00;101553.53;5039475;28;20049;-49
2023/12/18 01:22:30;;;;;;;1.33;0.45;;;;;;;12.00;100.00;101556.28;5027506;28;20068;-50
2023/12/18 01:24:58;;;;;;;1.10;0.30;;;;;;;12.00;100.00;101547.97;5027988;28;20049;-47
2023/12/18 01:27:25;;;;;;;0.28;0.28;;;;;;;12.01;100.00;101550.44;5025727;28;20093;-49
2023/12/18 01:29:53;;;;;;;1.60;0.50;;;;;;;12.02;100.00;101548.47;5027161;28;20068;-49
2023/12/18 01:32:20;;;;;;;0.98;0.40;;;;;;;12.02;100.00;101545.69;4996225;28;20041;-49
2023/12/18 01:34:47;;;;;;;2.25;0.45;;;;;;;12.03;100.00;101555.63;5027104;28;20045;-50
2023/12/18 01:37:15;;;;;;;1.50;0.43;;;;;;;12.02;100.00;101554.81;5027011;28;20042;-48
2023/12/18 01:39:42;;;;;;;1.08;0.30;;;;;;;12.04;100.00;101549.75;5026752;28;20057;-52
2023/12/18 01:42:09;;;;;;;1.27;0.38;;;;;;;12.06;100.00;101541.09;5027384;28;20037;-49
2023/12/18 01:44:38;;;;;;;0.93;0.30;;;;;;;12.06;100.00;101532.75;5027144;28;20388;-48
2023/12/18 01:47:06;;;;;;;1.02;0.40;;;;;;;12.07;100.00;101534.41;5027149;28;20132;-47
2023/12/18 01:49:34;;;;;;;0.40;0.28;;;;;;;12.08;100.00;101536.00;5026343;28;20504;-48
2023/12/18 01:52:02;;;;;;;2.40;1.65;;;;;;;12.08;100.00;101533.22;5009571;28;20045;-48
2023/12/18 01:54:31;;;;;;;1.08;0.30;;;;;;;12.09;100.00;101532.09;5025394;28;20041;-47
2023/12/18 01:56:59;;;;;;;0.50;0.30;;;;;;;12.09;100.00;101535.69;5026751;28;20049;-49
2023/12/18 01:59:27;;;;;;;0.40;0.25;;;;;;;12.12;100.00;101542.53;5026406;28;21220;-49
2023/12/18 02:01:55;;;;;;;0.60;0.38;;;;;;;12.11;100.00;101532.56;5026864;28;20058;-53
2023/12/18 02:04:22;;;;;;;0.30;0.30;;;;;;;12.11;100.00;101524.25;5026615;28;20049;-47
2023/12/18 02:06:50;;;;;;;1.95;0.40;;;;;;;12.13;100.00;101522.75;5027327;28;20478;-49
2023/12/18 02:09:17;;;;;;;0.73;0.20;;;;;;;12.12;100.00;101517.53;5026088;28;20046;-47
2023/12/18 02:11:45;;;;;;;1.52;0.30;;;;;;;12.13;100.00;101513.59;5027319;28;20046;-48
2023/12/18 02:14:12;;;;;;;1.48;0.30;;;;;;;12.11;100.00;101522.28;5026912;28;20049;-49
2023/12/18 02:16:40;;;;;;;1.40;0.30;;;;;;;12.12;100.00;101514.78;5029215;28;20057;-52
2023/12/18 02:19:27;;;;;;;2.67;0.32;;;;;;;12.12;100.00;101515.59;5030662;28;20041;-48
2023/12/18 02:21:56;;;;;;;0.82;0.30;;;;;;;12.10;100.00;101498.44;5029962;28;20064;-48
2023/12/18 02:24:24;;;;;;;0.82;0.57;;;;;;;12.10;100.00;101494.84;5030700;28;20053;-55
2023/12/18 02:26:53;;;;;;;1.15;0.40;;;;;;;12.10;100.00;101492.06;5029973;28;20056;-48
2023/12/18 02:29:20;;;;;;;1.88;0.70;;;;;;;12.09;100.00;101496.81;5011950;28;20053;-49
2023/12/18 02:31:47;;;;;;;0.73;0.40;;;;;;;12.09;100.00;101484.91;5030231;28;20054;-47
2023/12/18 02:34:14;;;;;;;0.40;0.40;;;;;;;12.10;100.00;101492.88;5029827;28;20049;-52
2023/12/18 02:36:42;;;;;;;1.67;0.50;;;;;;;12.11;100.00;101488.16;5029833;28;20137;-50
2023/12/18 02:39:10;;;;;;;2.13;0.65;;;;;;;12.09;100.00;101485.72;5030517;28;20053;-48
2023/12/18 02:41:37;;;;;;;1.45;0.32;;;;;;;12.10;100.00;101487.34;5030032;28;20708;-48
2023/12/18 02:44:04;;;;;;;2.28;0.47;;;;;;;12.11;100.00;101479.81;5030416;28;20452;-49
2023/12/18 02:46:32;;;;;;;0.47;0.40;;;;;;;12.11;100.00;101485.38;5027876;28;20049;-49
2023/12/18 02:48:59;;;;;;;0.43;0.30;;;;;;;12.12;100.00;101487.00;5028390;28;20048;-46
2023/12/18 02:51:26;;;;;;;3.58;0.70;;;;;;;12.13;100.00;101491.41;5029381;28;20056;-49
2023/12/18 02:53:54;;;;;;;2.78;0.65;;;;;;;12.14;100.00;101479.16;5029285;28;20411;-48
2023/12/18 02:56:23;;;;;;;1.55;0.50;;;;;;;12.13;100.00;101505.28;5028452;28;20049;-51
2023/12/18 02:58:50;;;;;;;0.90;0.32;;;;;;;12.14;100.00;101504.13;5029118;28;20057;-48
2023/12/18 03:01:18;;;;;;;0.65;0.40;;;;;;;12.13;100.00;101503.31;5126973;22;20045;-49
2023/12/18 03:03:45;;;;;;;1.42;0.28;;;;;;;12.13;100.00;101508.88;5029173;28;20049;-51
2023/12/18 03:06:13;;;;;;;1.92;0.30;;;;;;;12.13;100.00;101508.06;5028382;28;20052;-51
2023/12/18 03:08:41;;;;;;;1.23;0.40;;;;;;;12.15;100.00;101505.78;5028900;28;20056;-50
2023/12/18 03:11:10;;;;;;;0.52;0.40;;;;;;;12.15;100.00;101503.78;5029093;28;20057;-49
2023/12/18 03:13:37;;;;;;;2.67;0.30;;;;;;;12.16;100.00;101493.50;5028737;28;20049;-54
2023/12/18 03:16:04;;;;;;;0.95;0.28;;;;;;;12.19;100.00;101492.84;5028745;28;20041;-52
2023/12/18 03:18:33;;;;;;;1.33;0.22;;;;;;;12.19;100.00;101481.72;5028740;28;20056;-53
2023/12/18 03:21:00;;;;;;;2.10;0.22;;;;;;;12.20;100.00;101472.25;5026682;28;20048;-51
2023/12/18 03:23:27;;;;;;;0.40;0.20;;;;;;;12.19;100.00;101473.41;5028495;28;20072;-54
2023/12/18 03:25:55;;;;;;;1.45;0.22;;;;;;;12.19;100.00;101459.53;5030937;28;20041;-48
2023/12/18 03:28:22;;;;;;;0.28;0.20;;;;;;;12.22;100.00;101453.28;5028240;28;20053;-52
2023/12/18 03:30:49;;;;;;;0.28;0.10;;;;;;;12.22;100.00;101456.06;5028841;28;20050;-50
2023/12/18 03:33:17;;;;;;;1.35;0.22;;;;;;;12.22;100.00;101447.75;5028037;28;20049;-51
2023/12/18 03:35:44;;;;;;;0.88;0.30;;;;;;;12.23;100.00;101452.94;5028946;28;20057;-56
2023/12/18 03:38:12;;;;;;;1.30;0.30;;;;;;;12.26;100.00;101442.34;5024450;28;20510;-53
2023/12/18 03:40:40;;;;;;;0.85;0.30;;;;;;;12.26;100.00;101432.00;5028158;28;20048;-50
2023/12/18 03:43:07;;;;;;;2.30;0.30;;;;;;;12.27;100.00;101436.44;5024437;28;20050;-51
2023/12/18 03:45:34;;;;;;;0.28;0.25;;;;;;;12.27;100.00;101441.16;5029277;28;20371;-49
2023/12/18 03:48:02;;;;;;;0.20;0.20;;;;;;;12.28;100.00;101443.63;5028165;28;20512;-55
2023/12/18 03:50:30;;;;;;;1.63;0.30;;;;;;;12.30;100.00;101441.31;5028465;28;20075;-52
2023/12/18 03:52:57;;;;;;;1.08;0.17;;;;;;;12.32;100.00;101433.44;5028038;28;20120;-53
2023/12/18 03:55:25;;;;;;;0.52;0.13;;;;;;;12.33;100.00;101428.72;5028235;28;20057;-51
2023/12/18 03:57:53;;;;;;;0.32;0.10;;;;;;;12.34;100.00;101425.56;5027629;28;20057;-49
2023/12/18 04:00:21;;;;;;;1.98;0.10;;;;;;;12.34;100.00;101425.56;5028015;28;20060;-53
2023/12/18 04:02:48;;;;;;;0.15;0.10;;;;;;;12.35;100.00;101432.75;5027969;28;20049;-53
2023/12/18 04:05:16;;;;;;;0.15;0.10;;;;;;;12.36;100.00;101431.63;5027958;28;20041;-52
2023/12/18 04:07:43;;;;;;;0.43;0.20;;;;;;;12.36;100.00;101439.94;5027407;28;20406;-50
2023/12/18 04:10:11;;;;;;;0.28;0.15;;;;;;;12.38;100.00;101434.03;5028307;28;20050;-54
2023/12/18 04:12:38;;;;;;;0.43;0.20;;;;;;;12.38;100.00;101423.75;5028325;28;20054;-54
2023/12/18 04:15:06;;;;;;;0.55;0.10;;;;;;;12.38;100.00;101414.59;5027884;28;20057;-54
2023/12/18 04:17:34;;;;;;;0.88;0.10;;;;;;;12.38;100.00;101420.16;5028261;28;20060;-55
2023/12/18 04:20:02;;;;;;;0.85;0.40;;;;;;;12.38;100.00;101409.06;5010087;28;20057;-55
2023/12/18 04:22:29;;;;;;;1.42;0.20;;;;;;;12.37;100.00;101399.09;5027675;28;20053;-53
2023/12/18 04:24:57;;;;;;;0.55;0.20;;;;;;;12.36;100.00;101414.97;5032859;28;20049;-50
2023/12/18 04:27:24;;;;;;;0.50;0.30;;;;;;;12.37;100.00;101412.97;5026526;28;20048;-49
2023/12/18 04:29:51;;;;;;;0.20;0.20;;;;;;;12.36;100.00;101417.75;5027565;28;20529;-52
2023/12/18 04:32:19;;;;;;;0.20;0.20;;;;;;;12.34;100.00;101408.91;5027829;28;20415;-54
2023/12/18 04:34:46;;;;;;;1.40;0.30;;;;;;;12.34;100.00;101414.47;5027091;28;20057;-51
2023/12/18 04:37:13;;;;;;;0.10;0.10;;;;;;;12.34;100.00;101422.81;5027387;28;20056;-51
2023/12/18 04:39:41;;;;;;;0.55;0.20;;;;;;;12.35;100.00;101416.09;5027626;28;20046;-51
2023/12/18 04:42:09;;;;;;;0.52;0.10;;;;;;;12.35;100.00;101430.00;5026637;28;20553;-53
2023/12/18 04:44:36;;;;;;;2.15;0.52;;;;;;;12.35;100.00;101430.00;5024445;28;20400;-49
2023/12/18 04:47:04;;;;;;;0.85;0.30;;;;;;;12.36;100.00;101422.47;5025925;28;20076;-52
2023/12/18 04:49:31;;;;;;;5.60;2.25;;;;;;;12.36;100.00;101423.28;5026754;28;20774;-52
2023/12/18 04:51:59;;;;;;;1.30;0.60;;;;;;;12.37;100.00;101424.91;5027426;28;20045;-52
2023/12/18 04:54:26;;;;;;;0.28;0.10;;;;;;;12.38;100.00;101428.50;5027678;28;20053;-53
2023/12/18 04:56:54;;;;;;;0.45;0.10;;;;;;;12.38;100.00;101420.97;5027689;28;20041;-49
2023/12/18 04:59:21;;;;;;;0.40;0.10;;;;;;;12.39;100.00;101414.25;5026222;28;20517;-49
2023/12/18 05:01:48;;;;;;;0.55;0.10;;;;;;;12.41;100.00;101420.31;5027011;28;20057;-51
2023/12/18 05:04:16;;;;;;;0.20;0.20;;;;;;;12.41;100.00;101409.19;5026890;28;20570;-49
2023/12/18 05:06:43;;;;;;;0.93;0.10;;;;;;;12.41;100.00;101408.38;5027525;28;20060;-51
2023/12/18 05:09:10;;;;;;;0.65;0.20;;;;;;;12.41;100.00;101414.75;5026685;28;20065;-50
2023/12/18 05:11:38;;;;;;;0.30;0.10;;;;;;;12.42;100.00;101418.31;5023032;28;20050;-54
2023/12/18 05:14:06;;;;;;;0.30;0.10;;;;;;;12.42;100.00;101410.81;5026828;28;20491;-51
2023/12/18 05:16:33;;;;;;;0.30;0.10;;;;;;;12.42;100.00;101410.81;5026896;28;20065;-54
2023/12/18 05:19:00;;;;;;;0.20;0.00;;;;;;;12.42;100.00;101416.34;5009207;28;20046;-54
2023/12/18 05:21:28;;;;;;;0.50;0.17;;;;;;;12.43;100.00;101418.00;5000372;28;20041;-51
2023/12/18 05:23:56;;;;;;;0.00;0.00;;;;;;;12.42;100.00;101404.44;5027166;28;20041;-50
2023/12/18 05:26:24;;;;;;;1.65;0.20;;;;;;;12.41;100.00;101414.75;5027367;28;20041;-53
2023/12/18 05:28:52;;;;;;;1.58;0.20;;;;;;;12.42;100.00;101410.81;5026416;28;20124;-51
2023/12/18 05:31:20;;;;;;;0.13;0.10;;;;;;;12.42;100.00;101410.81;5026604;28;20068;-57
2023/12/18 05:33:48;;;;;;;1.40;0.20;;;;;;;12.41;100.00;101398.09;5026065;28;20060;-52
2023/12/18 05:36:16;;;;;;;0.52;0.10;;;;;;;12.39;100.00;101399.59;5025683;28;20045;-50
2023/12/18 05:38:45;;;;;;;0.13;0.13;;;;;;;12.36;100.00;101401.06;5027188;28;20408;-56
2023/12/18 05:41:12;;;;;;;0.30;0.15;;;;;;;12.33;100.00;101401.75;5026879;28;20034;-57
2023/12/18 05:43:40;;;;;;;0.10;0.00;;;;;;;12.31;100.00;101390.16;5026452;28;20072;-54
2023/12/18 05:46:12;;;;;;;0.10;0.10;;;;;;;12.32;100.00;101377.91;5026148;28;20057;-57
2023/12/18 05:48:39;;;;;;;1.45;0.30;;;;;;;12.30;100.00;101385.78;5020341;28;20072;-52
2023/12/18 05:51:18;;;;;;;0.40;0.20;;;;;;;12.26;100.00;101395.91;5028415;28;20045;-52
2023/12/18 05:53:45;;;;;;;0.10;0.10;;;;;;;12.25;100.00;101399.06;5030272;28;20598;-54
2023/12/18 05:56:13;;;;;;;0.30;0.10;;;;;;;12.24;100.00;101395.47;5031019;28;20499;-49
2023/12/18 05:58:40;;;;;;;0.10;0.03;;;;;;;12.26;100.00;101398.69;5030963;28;20050;-52
2023/12/18 06:01:08;;;;;;;0.65;0.43;;;;;;;12.28;100.00;101401.16;5029521;28;20045;-53
2023/12/18 06:03:36;;;;;;;0.00;0.00;;;;;;;12.28;100.00;101396.41;5030751;28;20045;-54
2023/12/18 06:06:03;;;;;;;0.00;0.00;;;;;;;12.31;100.00;101406.03;5027270;28;20056;-57
2023/12/18 06:08:31;;;;;;;0.68;0.10;;;;;;;12.33;100.00;101406.50;5029732;28;20055;-54
2023/12/18 06:10:58;;;;;;;0.10;0.10;;;;;;;12.35;100.00;101398.63;5013077;28;20064;-54
2023/12/18 06:13:25;;;;;;;0.65;0.17;;;;;;;12.36;100.00;101405.81;5029969;28;20052;-59
2023/12/18 06:15:53;;;;;;;0.65;0.20;;;;;;;12.37;100.00;101399.91;5028178;28;20530;-54
2023/12/18 06:18:20;;;;;;;0.98;0.20;;;;;;;12.38;100.00;101404.31;5030148;28;20053;-53
2023/12/18 06:20:47;;;;;;;1.60;1.50;;;;;;;12.40;100.00;101410.34;5028582;28;20033;-51
2023/12/18 06:23:15;;;;;;;0.22;0.10;;;;;;;12.41;100.00;101405.59;5029136;28;20053;-54
2023/12/18 06:25:42;;;;;;;1.45;0.15;;;;;;;12.40;100.00;101396.44;5037804;28;20041;-54
2023/12/18 06:28:09;;;;;;;1.13;0.10;;;;;;;12.42;100.00;101410.81;5029980;28;20535;-50
2023/12/18 06:30:37;;;;;;;0.20;0.10;;;;;;;12.43;100.00;101418.00;5029435;28;20049;-52
2023/12/18 06:33:04;;;;;;;0.17;0.15;;;;;;;12.43;100.00;101420.75;5029368;28;20057;-53
2023/12/18 06:35:32;;;;;;;0.38;0.10;;;;;;;12.46;100.00;101416.50;5029367;28;20064;-51
2023/12/18 06:37:59;;;;;;;0.57;0.20;;;;;;;12.45;100.00;101410.13;5029103;28;20060;-50
2023/12/18 06:40:27;;;;;;;0.13;0.10;;;;;;;12.46;100.00;101399.84;5017001;28;20052;-50
2023/12/18 06:42:54;;;;;;;0.85;0.28;;;;;;;12.45;100.00;101406.53;5029360;28;20061;-53
2023/12/18 06:45:22;;;;;;;0.10;0.10;;;;;;;12.45;100.00;101412.91;5028722;28;20502;-54
2023/12/18 06:47:49;;;;;;;1.45;0.20;;;;;;;12.46;100.00;101402.59;5029067;28;20049;-53
2023/12/18 06:50:16;;;;;;;0.20;0.10;;;;;;;12.47;100.00;101405.03;5030556;28;20049;-50
2023/12/18 06:52:44;;;;;;;0.73;0.20;;;;;;;12.47;100.00;101418.91;5029001;28;20052;-52
2023/12/18 06:55:11;;;;;;;0.22;0.10;;;;;;;12.47;100.00;101426.47;5029960;28;20041;-52
2023/12/18 06:57:39;;;;;;;0.22;0.10;;;;;;;12.48;100.00;101437.22;5029409;28;20129;-52
2023/12/18 07:00:07;;;;;;;1.40;0.20;;;;;;;12.49;100.00;101435.25;5029447;28;20053;-50
2023/12/18 07:02:34;;;;;;;0.43;0.20;;;;;;;12.49;100.00;101422.19;5027474;28;20068;-53
2023/12/18 07:05:02;;;;;;;0.35;0.10;;;;;;;12.49;100.00;101415.81;5029086;28;20053;-54
2023/12/18 07:07:29;;;;;;;2.03;0.10;;;;;;;12.49;100.00;101421.38;5028827;28;21392;-50
2023/12/18 07:09:56;;;;;;;0.77;0.20;;;;;;;12.49;100.00;101426.91;5011833;28;20045;-52
2023/12/18 07:12:24;;;;;;;0.70;0.10;;;;;;;12.48;100.00;101423.31;5028572;28;20396;-49
2023/12/18 07:14:52;;;;;;;0.30;0.20;;;;;;;12.49;100.00;101432.47;5029305;28;20380;-53
2023/12/18 07:17:19;;;;;;;0.40;0.20;;;;;;;12.49;100.00;101432.47;5028214;28;20053;-51
2023/12/18 07:19:46;;;;;;;3.28;0.15;;;;;;;12.47;100.00;101430.03;5029510;28;20088;-50
2023/12/18 07:22:14;;;;;;;0.57;0.10;;;;;;;12.47;100.00;101413.38;5029601;28;20593;-49
2023/12/18 07:24:41;;;;;;;0.43;0.13;;;;;;;12.45;100.00;101421.22;5035311;28;20521;-54
2023/12/18 07:27:08;;;;;;;0.38;0.20;;;;;;;12.45;100.00;101418.44;5031066;28;20416;-49
2023/12/18 07:29:36;;;;;;;1.73;0.43;;;;;;;12.43;100.00;101423.53;5027804;28;20041;-52
2023/12/18 07:32:04;;;;;;;0.43;0.17;;;;;;;12.43;100.00;101419.94;5028412;28;20056;-52
2023/12/18 07:34:31;;;;;;;0.80;0.20;;;;;;;12.41;100.00;101417.53;5027974;28;20491;-54
2023/12/18 07:36:59;;;;;;;0.40;0.20;;;;;;;12.40;100.00;101421.44;5028012;28;20495;-53
2023/12/18 07:39:27;;;;;;;0.60;0.20;;;;;;;12.40;100.00;101413.13;5010797;28;20060;-54
2023/12/18 07:41:55;;;;;;;0.28;0.10;;;;;;;12.36;100.00;101403.84;5011407;28;20041;-51
2023/12/18 07:44:22;;;;;;;0.20;0.20;;;;;;;12.37;100.00;101401.88;5028791;28;20058;-50
2023/12/18 07:46:51;;;;;;;1.05;0.40;;;;;;;12.35;100.00;101398.63;5029192;28;20061;-51
2023/12/18 07:49:18;;;;;;;0.22;0.20;;;;;;;12.34;100.00;101397.03;5028151;28;20839;-53
2023/12/18 07:51:46;;;;;;;0.40;0.28;;;;;;;12.32;100.00;101400.13;5011589;28;20049;-52
2023/12/18 07:54:14;;;;;;;1.75;0.20;;;;;;;12.31;100.00;101398.47;5027433;28;20048;-50
2023/12/18 07:56:42;;;;;;;1.10;1.00;;;;;;;12.31;100.00;101404.03;5029335;28;20045;-53
2023/12/18 07:59:11;;;;;;;2.70;0.85;;;;;;;12.28;100.00;101381.72;5010172;28;20053;-53
2023/12/18 08:01:38;;;;;;;0.10;0.10;;;;;;;12.26;100.00;101384.81;5027115;28;20057;-54
2023/12/18 08:04:05;;;;;;;0.82;0.32;;;;;;;12.26;100.00;101386.81;5026909;28;20046;-54
2023/12/18 08:06:33;;;;;;;1.27;0.10;;;;;;;12.24;100.00;101398.22;5017967;28;20053;-49
2023/12/18 08:09:00;;;;;;;0.25;0.10;;;;;;;12.23;100.00;101399.41;5022809;28;20053;-48
2023/12/18 08:11:28;;;;;;;0.22;0.22;;;;;;;12.21;100.00;101410.00;5010788;28;20076;-48
2023/12/18 08:13:55;;;;;;;0.10;0.10;;;;;;;12.21;100.00;101407.25;5027569;28;20064;-51
2023/12/18 08:16:25;;;;;;;1.13;0.25;;;;;;;12.21;100.00;101438.59;5028144;28;20049;-48
2023/12/18 08:18:55;;;;;;;0.70;0.70;;;;;;;12.21;100.00;101432.22;5028570;28;20041;-51
2023/12/18 08:21:28;;;;;;;0.25;0.20;;;;;;;12.21;100.00;101433.03;5028046;28;20407;-49
2023/12/18 08:23:55;;;;;;;0.40;0.20;;;;;;;12.23;100.00;101432.72;5027622;28;20053;-50
2023/12/18 08:26:22;;;;;;;1.50;0.10;;;;;;;12.25;100.00;101438.75;5036009;28;20519;-55
2023/12/18 08:28:50;;;;;;;0.20;0.20;;;;;;;12.26;100.00;101434.00;5027499;28;20064;-50
2023/12/18 08:31:17;;;;;;;0.77;0.22;;;;;;;12.26;100.00;101436.78;5023157;28;20911;-50
2023/12/18 08:33:45;;;;;;;0.60;0.20;;;;;;;12.26;100.00;101417.34;5027392;28;20045;-55
2023/12/18 08:36:13;;;;;;;0.20;0.20;;;;;;;12.27;100.00;101430.06;5009820;28;20053;-55
2023/12/18 08:38:40;;;;;;;0.20;0.20;;;;;;;12.28;100.00;101429.72;5026413;28;20049;-49
2023/12/18 08:41:07;;;;;;;0.20;0.20;;;;;;;12.28;100.00;101421.41;5023991;28;20048;-49
2023/12/18 08:43:34;;;;;;;0.35;0.30;;;;;;;12.30;100.00;101426.59;5027830;28;20056;-51
2023/12/18 08:46:02;;;;;;;0.80;0.80;;;;;;;12.29;100.00;101430.53;5028511;28;20053;-48
2023/12/18 08:48:29;;;;;;;0.30;0.20;;;;;;;12.29;100.00;101428.56;5014266;28;20053;-52
2023/12/18 08:50:57;;;;;;;0.45;0.40;;;;;;;12.30;100.00;101427.41;5027870;28;20068;-48
2023/12/18 08:53:24;;;;;;;0.95;0.10;;;;;;;12.31;100.00;101426.25;5027240;28;20049;-50
2023/12/18 08:55:51;;;;;;;0.32;0.20;;;;;;;12.31;100.00;101420.69;5027166;28;20057;-51
2023/12/18 08:58:20;;;;;;;0.13;0.13;;;;;;;12.31;100.00;101431.81;5027577;28;20057;-53
2023/12/18 09:00:48;;;;;;;0.20;0.20;;;;;;;12.31;100.00;101426.25;5027213;28;20049;-50
2023/12/18 09:03:15;;;;;;;0.28;0.28;;;;;;;12.32;100.00;101433.44;5025759;28;20391;-51
2023/12/18 09:05:43;;;;;;;0.30;0.30;;;;;;;12.32;100.00;101433.44;5027376;28;20057;-53
2023/12/18 09:08:13;;;;;;;0.80;0.22;;;;;;;12.31;100.00;101428.25;5027935;28;20499;-51
2023/12/18 09:10:41;;;;;;;0.63;0.43;;;;;;;12.32;100.00;101430.66;5026701;28;20049;-50
2023/12/18 09:13:08;;;;;;;0.30;0.30;;;;;;;12.31;100.00;101423.47;5027576;28;20546;-52
2023/12/18 09:15:36;;;;;;;1.27;0.20;;;;;;;12.31;100.00;101423.47;5027128;28;20503;-51
2023/12/18 09:18:04;;;;;;;1.15;0.30;;;;;;;12.30;100.00;101430.19;5027190;28;20072;-53
2023/12/18 09:20:32;;;;;;;0.50;0.30;;;;;;;12.31;100.00;101415.16;5025518;28;20041;-48
2023/12/18 09:22:59;;;;;;;1.38;0.50;;;;;;;12.32;100.00;101411.22;5027412;28;20061;-54
2023/12/18 09:25:27;;;;;;;1.52;0.75;;;;;;;12.32;100.00;101400.13;5033358;28;20075;-53
2023/12/18 09:27:54;;;;;;;2.85;0.60;;;;;;;12.31;100.00;101367.94;5027574;28;20056;-52
2023/12/18 09:30:21;;;;;;;0.90;0.40;;;;;;;12.32;100.00;101369.56;5026702;28;20060;-49
2023/12/18 09:32:49;;;;;;;1.23;0.35;;;;;;;12.34;100.00;101381.16;5027130;28;20061;-50
2023/12/18 09:35:16;;;;;;;0.63;0.50;;;;;;;12.34;100.00;101386.69;5027315;28;20045;-50
2023/12/18 09:37:44;;;;;;;1.35;0.30;;;;;;;12.34;100.00;101375.59;5027769;28;20049;-51
2023/12/18 09:40:11;;;;;;;0.90;0.40;;;;;;;12.34;100.00;101369.25;5027306;28;20056;-54
2023/12/18 09:42:39;;;;;;;1.33;0.22;;;;;;;12.34;100.00;101374.81;5026294;28;20041;-50
2023/12/18 09:45:09;;;;;;;0.45;0.45;;;;;;;12.34;100.00;101366.47;5027268;28;20503;-48
2023/12/18 09:47:40;;;;;;;0.40;0.40;;;;;;;12.35;100.00;101381.97;5027092;28;20507;-49
2023/12/18 09:50:09;;;;;;;0.50;0.30;;;;;;;12.37;100.00;101368.53;5026986;28;20041;-50
2023/12/18 09:52:41;;;;;;;0.30;0.28;;;;;;;12.34;100.00;101370.03;5026730;28;20052;-51
2023/12/18 09:55:08;;;;;;;0.90;0.30;;;;;;;12.34;100.00;101358.94;5026537;28;20125;-51
2023/12/18 09:57:37;;;;;;;2.42;0.30;;;;;;;12.36;100.00;101378.88;5026830;28;20050;-50
2023/12/18 10:00:06;;;;;;;0.15;0.10;;;;;;;12.38;100.00;101368.22;5026806;28;20057;-50
2023/12/18 10:02:37;;;;;;;2.92;0.28;;;;;;;12.39;100.00;101367.03;5026315;28;20086;-54
2023/12/18 10:05:04;;;;;;;0.38;0.32;;;;;;;12.42;100.00;101371.91;5026415;28;20519;-49
2023/12/18 10:07:33;;;;;;;4.03;0.20;;;;;;;12.44;100.00;101379.94;5009886;28;20057;-48
2023/12/18 10:10:01;;;;;;;0.32;0.30;;;;;;;12.48;100.00;101375.28;5027220;28;20511;-56
2023/12/18 10:12:29;;;;;;;0.47;0.30;;;;;;;12.50;100.00;101379.34;5026057;28;20046;-52
2023/12/18 10:14:56;;;;;;;0.32;0.17;;;;;;;12.53;100.00;101383.41;5027061;28;20495;-50
2023/12/18 10:17:23;;;;;;;0.30;0.20;;;;;;;12.57;100.00;101401.84;5026515;28;20049;-50
2023/12/18 10:19:51;;;;;;;0.98;0.35;;;;;;;12.59;100.00;101393.97;5027102;28;20049;-48
2023/12/18 10:22:18;;;;;;;1.83;0.40;;;;;;;12.60;100.00;101400.34;5026047;28;20049;-51
2023/12/18 10:24:46;;;;;;;1.10;0.40;;;;;;;12.63;100.00;101394.91;5033951;28;20037;-50
2023/12/18 10:27:13;;;;;;;0.20;0.17;;;;;;;12.66;100.00;101398.94;5027410;28;20049;-51
2023/12/18 10:29:40;;;;;;;0.10;0.10;;;;;;;12.67;100.00;101384.75;5027240;28;20053;-51
2023/12/18 10:32:08;;;;;;;1.02;0.13;;;;;;;12.69;100.00;101387.97;5026688;28;20065;-51
2023/12/18 10:34:36;;;;;;;0.60;0.10;;;;;;;12.72;100.00;101389.25;5009435;28;20056;-51
2023/12/18 10:37:04;;;;;;;0.28;0.20;;;;;;;12.74;100.00;101371.09;5010128;28;20099;-50
2023/12/18 10:39:37;;;;;;;1.15;0.30;;;;;;;12.75;100.00;101389.38;5030122;28;20092;-49
2023/12/18 10:42:13;;;;;;;0.25;0.17;;;;;;;12.78;100.00;101385.94;5017828;28;20056;-48
2023/12/18 10:44:41;;;;;;;0.35;0.20;;;;;;;12.82;100.00;101389.63;5029979;28;20060;-50
2023/12/18 10:47:10;;;;;;;0.43;0.20;;;;;;;12.83;100.00;101388.47;5030440;28;20106;-55
2023/12/18 10:49:40;;;;;;;0.40;0.30;;;;;;;12.86;100.00;101386.16;5029939;28;20049;-48
2023/12/18 10:52:08;;;;;;;0.20;0.10;;;;;;;12.84;100.00;101390.09;5030306;28;20530;-51
2023/12/18 10:54:37;;;;;;;0.10;0.00;;;;;;;12.83;100.00;101377.38;5029490;28;20125;-51
2023/12/18 10:57:07;;;;;;;0.30;0.10;;;;;;;12.81;100.00;101374.09;5012530;28;20403;-51
2023/12/18 10:59:36;;;;;;;0.47;0.20;;;;;;;12.81;100.00;101376.09;5010976;28;20049;-50
2023/12/18 11:02:07;;;;;;;0.20;0.10;;;;;;;12.79;100.00;101390.31;5029927;28;20069;-49
2023/12/18 11:04:36;;;;;;;0.30;0.30;;;;;;;12.79;100.00;101386.72;5029490;28;20050;-50
2023/12/18 11:07:04;;;;;;;0.15;0.10;;;;;;;12.77;100.00;101378.72;5029345;28;20038;-54
2023/12/18 11:09:31;;;;;;;1.35;0.20;;;;;;;12.77;100.00;101370.41;5029921;28;20045;-51
2023/12/18 11:11:59;;;;;;;2.17;0.20;;;;;;;12.76;100.00;101387.44;5028876;28;20492;-49
2023/12/18 11:14:37;;;;;;;0.03;0.03;;;;;;;12.77;100.00;101395.41;5028751;28;20403;-52
2023/12/18 11:17:24;;;;;;;0.25;0.20;;;;;;;12.76;100.00;101379.88;5029565;28;20053;-51
2023/12/18 11:20:05;;;;;;;0.85;0.38;;;;;;;12.75;100.00;101381.06;4979084;28;20496;-52